Terminal Aerodrome Forecast
Issued by NWS

Home | Current Version | Previous Version | Text Only | Print | Product List | Glossary On
Versions: 1 2 3 4 5 6 7 8 9 10 11 12 13 14 15 16 17 18 19
000
FTUS43 KGRB 162000 AAA
TAFRHI
TAF AMD
KRHI 162027Z 1620/1718 11016G22KT P6SM OVC014
     FM170200 10012KT 1/2SM SN FZFG OVC003 WS015/15040KT
     FM171400 14008KT 1 1/2SM -SN OVC004=

USA.gov is the U.S. government's official web portal to all federal, state and local government web resources and services.